Seatac, WA (98188)

9:14 PM PDT on March 28, 2015 (GMT -0700)
Angle Lake Haven | | Change Station
CLOSE
Current Station
Personal Weather Station
Location: SeaTac, WA
Elevation: 417 ft
Nearby Weather Stations

Elev 417 ft 47.43 °N, 122.29 °W | Updated 7 seconds ago

Overcast
Overcast
53.1 °F
Feels Like 53.1 °F
N
5.6
Wind Variable Wind from SSW
Gusts 7.4 mph

Today
High -- | Low -- °F
--% Chance of Precip.
Yesterday
High -- | Low -- °F
Precip. -- in
6:56 AM 7:32 PM
Waxing Gibbous, 68% visible
Pressure 30.37 in
Visibility 10.0 miles
Clouds Scattered Clouds 6500 ft
Mostly Cloudy 9500 ft
Overcast 12000 ft
Dew Point 42 °F
Humidity 66%
Rainfall 0.05 in
Snow Depth Not available.
UV 0.0 out of 12
Pollen 5.30 out of 12
Air Quality Not available.
Flu Activity Not available.
METAR KSEA 290353Z 23005KT 10SM SCT065 BKN095 OVC120 12/05 A3034 RMK AO2 SLP282 T01170050

More Conditions Fewer Conditions

Pressure 30.37 in
Visibility 10.0 miles
Clouds Scattered Clouds 6500 ft
Mostly Cloudy 9500 ft
Overcast 12000 ft
Dew Point 42 °F
Humidity 66%
Rainfall 0.05 in
Snow Depth Not available.
UV 0.0 out of 12
Pollen 5.30 out of 12
Air Quality Not available.
Flu Activity Not available.
METAR KSEA 290353Z 23005KT 10SM SCT065 BKN095 OVC120 12/05 A3034 RMK AO2 SLP282 T01170050

More Conditions Fewer Conditions

10-Day Weather Forecast

Almanac

Astronomy

Mar. 28, 2015 Rise Set
Actual Time
Civil Twilight
Nautical Twilight
Astronomical Twilight
Moon
Length of Visible Light
Length of Day
Tomorrow will be .
, % of the Moon is Illuminated

Today's Extremes

State Highs State Lows

Community

WunderPhotos

Upload Photos

1,809,182 photos uploaded!

WunderBlogs® & News

Nearby

Air Quality

  Air Quality AQ Index Pollutant
Not available.

Snow Depth

Station Depth Elevation

Earthquake Activity

City Distance Mag. Time & Date
Minimum magnitude displayed is 2.5.

Coastal Water Temperatures

Place Temperature

Stations

Nearby Weather Stations

Station Location Temp. Windchill Dew Point Humidity Wind Precip. Elev Updated Type